Time;durP1;ratioP1;P1;durP2;ratioP2;P2;SDS_P1;SDS_P2;PMS_P1;PMS_P2;Temp;Humidity;BMP_temperature;BMP_pressure;BME280_temperature;BME280_humidity;BME280_pressure;Samples;Min_cycle;Max_cycle;Signal;HPM_P1;HPM_P2
2023/12/05 00:01:25;;;;;;;58.05;32.45;;;;;;;;;;5093919;28;20047;-69
2023/12/05 00:04:29;;;;;;;61.53;33.45;;;;;;;;;;5093798;28;20039;-68
2023/12/05 00:07:34;;;;;;;55.83;32.13;;;12.00;95.00;;;;;;5093515;28;20047;-69
2023/12/05 00:10:38;;;;;;;60.17;33.33;;;;;;;;;;5093990;28;20063;-68
2023/12/05 00:13:43;;;;;;;53.08;28.10;;;;;;;;;;5093663;28;20047;-68
2023/12/05 00:16:47;;;;;;;52.70;26.02;;;;;;;;;;5093197;28;20082;-68
2023/12/05 00:19:51;;;;;;;41.97;23.83;;;;;;;;;;5093590;28;20051;-68
2023/12/05 00:22:56;;;;;;;39.45;24.08;;;;;;;;;;5093594;28;20050;-68
2023/12/05 00:26:00;;;;;;;42.50;23.42;;;;;;;;;;5093708;28;20383;-68
2023/12/05 00:29:04;;;;;;;40.55;24.52;;;;;;;;;;5093503;28;20043;-68
2023/12/05 00:32:09;;;;;;;37.50;23.27;;;;;;;;;;5093461;28;20114;-68
2023/12/05 00:35:14;;;;;;;43.88;23.48;;;;;;;;;;5093333;28;20047;-68
2023/12/05 00:38:18;;;;;;;40.13;21.95;;;;;;;;;;5092988;28;20058;-68
2023/12/05 00:41:25;;;;;;;40.75;21.98;;;;;;;;;;5093225;28;20114;-68
2023/12/05 00:44:29;;;;;;;40.67;22.23;;;;;;;;;;5093267;28;20384;-68
2023/12/05 00:47:33;;;;;;;36.25;21.42;;;;;;;;;;5092708;28;20047;-68
2023/12/05 00:50:38;;;;;;;44.42;24.02;;;;;;;;;;5092876;28;20040;-68
2023/12/05 00:53:43;;;;;;;41.60;22.92;;;;;;;;;;5092660;28;20043;-68
2023/12/05 00:56:47;;;;;;;39.28;20.25;;;;;;;;;;5092418;28;20070;-68
2023/12/05 00:59:52;;;;;;;43.38;24.27;;;;;;;;;;5092870;28;20051;-70
2023/12/05 01:02:58;;;;;;;42.58;23.27;;;;;;;;;;5093214;28;20039;-68
2023/12/05 01:06:03;;;;;;;39.40;23.80;;;;;;;;;;5092685;28;20522;-68
2023/12/05 01:09:10;;;;;;;42.03;25.02;;;;;;;;;;5092739;28;20043;-68
2023/12/05 01:12:14;;;;;;;49.65;24.83;;;;;;;;;;5092645;28;20424;-69
2023/12/05 01:15:19;;;;;;;41.53;22.35;;;;;;;;;;5092634;28;20043;-69
2023/12/05 01:18:23;;;;;;;45.60;22.13;;;;;;;;;;5092026;28;20059;-68
2023/12/05 01:21:27;;;;;;;41.58;23.92;;;;;;;;;;5092615;28;20035;-69
2023/12/05 01:24:31;;;;;;;39.65;22.23;;;;;;;;;;5092246;28;20039;-69
2023/12/05 01:27:35;;;;;;;35.17;18.95;;;;;;;;;;5092241;28;20392;-70
2023/12/05 01:30:41;;;;;;;35.13;19.83;;;;;;;;;;5092159;28;20047;-69
2023/12/05 01:33:46;;;;;;;34.75;19.25;;;;;;;;;;5092412;28;20043;-68
2023/12/05 01:36:50;;;;;;;36.80;18.80;;;;;;;;;;5092118;28;20404;-68
2023/12/05 01:39:54;;;;;;;34.05;16.67;;;;;;;;;;5091982;28;20134;-69
2023/12/05 01:42:59;;;;;;;34.58;17.75;;;;;;;;;;5092174;28;20039;-68
2023/12/05 01:46:04;;;;;;;31.40;17.55;;;;;;;;;;5092150;28;20063;-68
2023/12/05 01:49:08;;;;;;;36.30;18.80;;;;;;;;;;5091674;28;20510;-68
2023/12/05 01:52:13;;;;;;;34.30;21.52;;;;;;;;;;5091916;28;20043;-69
2023/12/05 01:55:17;;;;;;;36.97;19.90;;;;;;;;;;5091644;28;20051;-69
2023/12/05 01:58:21;;;;;;;35.47;19.48;;;;;;;;;;5092016;28;20055;-68
2023/12/05 02:01:26;;;;;;;31.00;17.00;;;;;;;;;;5078954;28;20035;-68
2023/12/05 02:04:31;;;;;;;33.97;19.23;;;11.80;99.90;;;;;;5091657;28;20051;-68
2023/12/05 02:07:36;;;;;;;35.35;18.70;;;11.80;99.90;;;;;;5091454;28;20051;-68
2023/12/05 02:10:40;;;;;;;31.23;18.85;;;;;;;;;;5091582;28;20047;-68
2023/12/05 02:13:45;;;;;;;37.10;16.70;;;;;;;;;;5091514;28;20039;-69
2023/12/05 02:17:07;;;;;;;36.65;18.33;;;11.70;99.90;;;;;;5091029;28;20055;-68
2023/12/05 02:20:12;;;;;;;29.08;18.27;;;;;;;;;;5091471;28;20047;-68
2023/12/05 02:23:33;;;;;;;34.10;19.58;;;11.70;99.90;;;;;;5091224;28;20039;-68
2023/12/05 02:27:12;;;;;;;;;;;11.70;99.90;;;;;;5091486;28;20043;-69
2023/12/05 02:30:17;;;;;;;35.25;20.13;;;;;;;;;;5031568;28;19905;-68
2023/12/05 02:33:21;;;;;;;37.72;23.25;;;;;;;;;;5091266;28;20066;-68
2023/12/05 02:36:25;;;;;;;35.65;19.73;;;;;;;;;;5091135;28;20055;-68
2023/12/05 02:39:49;;;;;;;32.10;19.50;;;11.50;99.90;;;;;;5091208;28;20055;-68
2023/12/05 02:42:55;;;;;;;35.25;18.13;;;11.40;99.90;;;;;;5090787;28;20510;-68
2023/12/05 02:46:00;;;;;;;27.95;15.15;;;;;;;;;;5091099;28;20397;-68
2023/12/05 02:49:05;;;;;;;28.25;14.57;;;;;;;;;;5091120;28;20043;-68
2023/12/05 02:52:10;;;;;;;25.48;14.82;;;11.80;99.90;;;;;;5091186;28;20043;-68
2023/12/05 02:55:15;;;;;;;27.25;15.38;;;;;;;;;;5091075;28;20043;-68
2023/12/05 02:58:19;;;;;;;25.70;16.38;;;;;;;;;;5090696;28;20106;-68
2023/12/05 03:01:26;;;;;;;27.30;15.32;;;;;;;;;;5090792;28;20391;-68
2023/12/05 03:04:30;;;;;;;28.20;14.73;;;;;;;;;;5091028;28;20051;-68
2023/12/05 03:07:36;;;;;;;24.65;14.60;;;;;;;;;;5090844;28;20491;-68
2023/12/05 03:10:41;;;;;;;29.13;13.57;;;;;;;;;;5090734;28;20511;-68
2023/12/05 03:13:45;;;;;;;21.08;11.98;;;;;;;;;;5090723;28;20039;-68
2023/12/05 03:16:50;;;;;;;22.98;12.48;;;;;;;;;;5090400;28;20047;-68
2023/12/05 03:19:54;;;;;;;20.88;12.10;;;;;;;;;;5090457;28;20040;-68
2023/12/05 03:22:58;;;;;;;23.25;11.93;;;;;;;;;;5090650;28;20039;-67
2023/12/05 03:26:02;;;;;;;19.90;10.30;;;;;;;;;;5094443;28;20051;-68
2023/12/05 03:29:11;;;;;;;18.48;8.10;;;;;;;;;;5094363;28;20101;-68
2023/12/05 03:32:15;;;;;;;16.73;7.95;;;;;;;;;;5094435;28;20039;-68
2023/12/05 03:35:19;;;;;;;18.73;8.35;;;;;;;;;;5094634;28;20043;-68
2023/12/05 03:38:24;;;;;;;20.92;8.80;;;;;;;;;;5094170;28;20059;-67
2023/12/05 03:41:28;;;;;;;16.92;7.75;;;;;;;;;;5094299;28;20039;-68
2023/12/05 03:44:32;;;;;;;15.20;7.43;;;;;;;;;;5094905;28;20525;-69
2023/12/05 03:47:37;;;;;;;16.40;8.10;;;;;;;;;;5094139;28;20039;-69
2023/12/05 03:50:41;;;;;;;20.00;9.10;;;;;;;;;;5094800;28;20047;-69
2023/12/05 03:53:46;;;;;;;11.68;7.80;;;;;;;;;;5094196;28;20398;-69
2023/12/05 03:56:50;;;;;;;15.82;8.02;;;;;;;;;;5081690;28;20063;-69
2023/12/05 03:59:54;;;;;;;17.27;8.57;;;;;;;;;;5094076;28;20512;-69
2023/12/05 04:02:59;;;;;;;18.92;8.40;;;;;;;;;;5093912;28;20039;-68
2023/12/05 04:06:03;;;;;;;18.48;9.43;;;;;;;;;;5093680;28;20043;-68
2023/12/05 04:09:07;;;;;;;18.83;9.05;;;;;;;;;;5093635;28;20110;-68
2023/12/05 04:12:11;;;;;;;15.15;8.75;;;;;;;;;;5093840;28;20039;-68
2023/12/05 04:15:16;;;;;;;19.55;9.50;;;;;;;;;;5093641;28;20428;-67
2023/12/05 04:18:20;;;;;;;16.88;8.82;;;;;;;;;;5093115;28;20147;-67
2023/12/05 04:21:26;;;;;;;19.17;10.52;;;;;;;;;;5093848;28;20051;-68
2023/12/05 04:24:30;;;;;;;17.85;10.50;;;;;;;;;;5093790;28;20051;-67
2023/12/05 04:27:34;;;;;;;18.15;10.27;;;;;;;;;;5093595;28;20522;-68
2023/12/05 04:30:39;;;;;;;23.35;11.15;;;;;;;;;;5081309;28;20507;-68
2023/12/05 04:33:43;;;;;;;14.65;9.63;;;;;;;;;;5093275;28;20392;-67
2023/12/05 04:36:48;;;;;;;15.18;9.38;;;;;;;;;;5092094;28;20050;-69
2023/12/05 04:39:52;;;;;;;13.85;9.10;;;;;;;;;;5093247;28;20047;-69
2023/12/05 04:42:56;;;;;;;17.45;9.45;;;;;;;;;;5093483;28;20035;-69
2023/12/05 04:46:01;;;;;;;14.10;8.60;;;;;;;;;;5093448;28;20491;-69
2023/12/05 04:49:08;;;;;;;17.60;9.40;;;;;;;;;;5092910;28;20039;-69
2023/12/05 04:52:12;;;;;;;15.98;9.52;;;;;;;;;;5093090;28;20043;-69
2023/12/05 04:55:20;;;;;;;19.23;9.40;;;;;;;;;;5093387;28;20051;-69
2023/12/05 04:58:24;;;;;;;15.88;8.98;;;;;;;;;;5092686;28;20051;-69
2023/12/05 05:01:29;;;;;;;11.95;8.50;;;;;;;;;;5092859;28;20035;-69
2023/12/05 05:04:33;;;;;;;14.88;8.65;;;;;;;;;;5093024;28;20109;-69
2023/12/05 05:07:37;;;;;;;17.95;8.98;;;;;;;;;;5092524;28;20039;-69
2023/12/05 05:10:42;;;;;;;17.67;9.18;;;;;;;;;;5092686;28;20050;-69
2023/12/05 05:13:46;;;;;;;13.10;8.98;;;;;;;;;;5092872;28;20039;-69
2023/12/05 05:16:50;;;;;;;20.35;10.00;;;;;;;;;;5092425;28;20095;-69
2023/12/05 05:19:55;;;;;;;14.15;8.10;;;;;;;;;;5092724;28;20047;-69
2023/12/05 05:22:59;;;;;;;15.90;8.75;;;;;;;;;;5092454;28;20051;-69
2023/12/05 05:26:04;;;;;;;14.25;8.05;;;;;;;;;;5092717;28;20050;-69
2023/12/05 05:29:08;;;;;;;14.25;9.30;;;;;;;;;;5092655;28;20055;-69
2023/12/05 05:32:12;;;;;;;20.15;8.63;;;;;;;;;;5092586;28;20506;-69
2023/12/05 05:35:16;;;;;;;16.77;9.57;;;;;;;;;;5092201;28;20047;-69
2023/12/05 05:38:21;;;;;;;17.33;8.55;;;;;;;;;;5091997;28;20055;-69
2023/12/05 05:41:25;;;;;;;16.27;8.25;;;;;;;;;;5091878;28;20055;-69
2023/12/05 05:44:30;;;;;;;14.27;7.90;;;;;;;;;;5092219;28;20387;-69
2023/12/05 05:47:34;;;;;;;13.48;7.30;;;;;;;;;;5091610;28;20040;-69
2023/12/05 05:50:40;;;;;;;13.05;7.30;;;;;;;;;;5091878;28;20060;-69
2023/12/05 05:53:44;;;;;;;15.18;7.43;;;;;;;;;;5091937;28;20522;-69
2023/12/05 05:56:48;;;;;;;11.65;5.80;;;;;;;;;;5091776;28;20055;-69
2023/12/05 05:59:53;;;;;;;15.48;6.25;;;;;;;;;;5091710;28;20039;-69
2023/12/05 06:02:57;;;;;;;12.85;5.53;;;;;;;;;;5091915;28;20055;-69
2023/12/05 06:06:02;;;;;;;11.00;5.25;;;;;;;;;;5091897;28;20043;-69
2023/12/05 06:09:06;;;;;;;12.27;4.82;;;;;;;;;;5091554;28;20043;-69
2023/12/05 06:12:11;;;;;;;9.00;4.43;;;;;;;;;;5091668;28;20047;-69
2023/12/05 06:15:16;;;;;;;13.18;4.45;;;;;;;;;;5091787;28;20040;-69
2023/12/05 06:18:20;;;;;;;9.85;4.47;;;;;;;;;;5091129;28;20051;-69
2023/12/05 06:21:24;;;;;;;14.38;5.15;;;;;;;;;;5091620;28;20028;-69
2023/12/05 06:24:28;;;;;;;9.95;5.60;;;;;;;;;;5091616;28;20047;-69
2023/12/05 06:27:32;;;;;;;12.40;5.40;;;;;;;;;;5078756;28;20031;-69
2023/12/05 06:30:37;;;;;;;10.32;5.78;;;;;;;;;;5091187;28;20395;-69
2023/12/05 06:33:44;;;;;;;8.15;5.50;;;;;;;;;;5091162;28;20061;-64
2023/12/05 06:36:49;;;;;;;15.15;6.45;;;;;;;;;;5091163;28;20452;-64
2023/12/05 06:39:53;;;;;;;10.02;5.45;;;;;;;;;;5091175;28;20051;-63
2023/12/05 06:42:57;;;;;;;10.35;5.65;;;;;;;;;;5091330;28;20039;-63
2023/12/05 06:46:02;;;;;;;12.63;6.05;;;;;;;;;;5090979;28;20051;-63
2023/12/05 06:49:06;;;;;;;11.15;5.85;;;;;;;;;;5090708;28;20039;-64
2023/12/05 06:52:11;;;;;;;11.38;6.28;;;11.70;99.90;;;;;;5090846;28;20036;-63
2023/12/05 06:55:15;;;;;;;12.50;5.88;;;;;;;;;;5090923;28;20058;-63
2023/12/05 06:58:21;;;;;;;8.30;4.90;;;;;;;;;;5090742;28;20054;-63
2023/12/05 07:01:26;;;;;;;10.90;5.72;;;;;;;;;;5082508;28;20099;-63
2023/12/05 07:04:30;;;;;;;11.75;7.13;;;;;;;;;;5094908;28;20050;-63
2023/12/05 07:07:35;;;;;;;12.05;6.00;;;;;;;;;;5094645;28;20039;-62
2023/12/05 07:10:39;;;;;;;11.35;5.72;;;;;;;;;;5094755;28;20051;-63
2023/12/05 07:13:45;;;;;;;10.68;4.93;;;;;;;;;;5095054;28;20047;-64
2023/12/05 07:16:49;;;;;;;9.82;5.45;;;;;;;;;;5094246;28;20066;-63
2023/12/05 07:19:53;;;;;;;7.68;4.18;;;;;;;;;;5094543;28;20035;-63
2023/12/05 07:22:57;;;;;;;6.90;4.30;;;;;;;;;;5094899;28;20361;-63
2023/12/05 07:26:02;;;;;;;8.07;3.80;;;;;;;;;;5094409;28;20036;-63
2023/12/05 07:29:07;;;;;;;6.10;2.90;;;;;;;;;;5094658;28;20040;-62
2023/12/05 07:32:11;;;;;;;3.60;2.28;;;;;;;;;;5094649;28;20048;-63
2023/12/05 07:35:16;;;;;;;6.35;2.58;;;;;;;;;;5094449;28;20380;-64
2023/12/05 07:38:20;;;;;;;5.35;2.30;;;;;;;;;;5094370;28;20052;-63
2023/12/05 07:41:24;;;;;;;5.28;2.20;;;;;;;;;;5094686;28;20472;-63
2023/12/05 07:44:29;;;;;;;6.25;2.60;;;;;;;;;;5094200;28;20032;-63
2023/12/05 07:47:33;;;;;;;3.75;2.50;;;;;;;;;;5094036;28;20040;-62
2023/12/05 07:50:37;;;;;;;6.93;2.70;;;;;;;;;;5094009;28;20364;-62
2023/12/05 07:53:45;;;;;;;6.53;2.78;;;12.60;99.90;;;;;;5094070;28;20040;-64
2023/12/05 07:56:49;;;;;;;7.85;3.30;;;;;;;;;;5093758;28;20051;-65
2023/12/05 07:59:54;;;;;;;3.83;2.72;;;;;;;;;;5094105;28;20043;-64
2023/12/05 08:02:58;;;;;;;5.03;2.50;;;;;;;;;;5093858;28;20499;-65
2023/12/05 08:06:02;;;;;;;4.95;2.65;;;;;;;;;;5093656;28;20044;-65
2023/12/05 08:09:07;;;;;;;8.25;3.00;;;;;;;;;;5093773;28;20545;-65
2023/12/05 08:12:11;;;;;;;8.07;3.30;;;;;;;;;;5093915;28;20036;-64
2023/12/05 08:15:16;;;;;;;7.05;3.50;;;;;;;;;;5093839;28;20044;-64
2023/12/05 08:18:20;;;;;;;8.10;3.88;;;;;;;;;;5080487;28;20507;-65
2023/12/05 08:21:25;;;;;;;6.20;3.78;;;;;;;;;;5093821;28;20040;-64
2023/12/05 08:24:29;;;;;;;5.47;2.70;;;;;;;;;;5094006;28;20496;-64
2023/12/05 08:27:33;;;;;;;8.60;2.95;;;;;;;;;;5093219;28;20044;-66
2023/12/05 08:30:39;;;;;;;8.63;2.67;;;;;;;;;;5093562;28;20040;-66
2023/12/05 08:33:43;;;;;;;6.38;2.58;;;;;;;;;;5093570;28;20040;-67
2023/12/05 08:36:47;;;;;;;9.60;2.13;;;;;;;;;;5093733;28;20044;-67
2023/12/05 08:39:51;;;;;;;6.30;1.85;;;;;;;;;;5093807;28;20060;-65
2023/12/05 08:42:56;;;;;;;8.00;2.17;;;;;;;;;;5093388;28;20040;-68
2023/12/05 08:46:02;;;;;;;5.55;2.03;;;;;;;;;;5093698;28;20484;-65
2023/12/05 08:49:06;;;;;;;12.73;3.17;;;;;;;;;;5093327;28;20099;-64
2023/12/05 08:52:11;;;;;;;6.78;2.13;;;;;;;;;;5093081;28;20075;-63
2023/12/05 08:55:15;;;;;;;10.35;3.00;;;;;;;;;;5092729;28;20044;-63
2023/12/05 08:58:20;;;;;;;8.13;2.90;;;;;;;;;;5091949;28;20066;-64
2023/12/05 09:01:24;;;;;;;10.90;2.97;;;;;;;;;;5092414;28;20044;-64
2023/12/05 09:04:28;;;;;;;7.05;2.85;;;;;;;;;;5092531;28;20047;-64
2023/12/05 09:07:33;;;;;;;10.20;2.72;;;;;;;;;;5092472;28;20039;-64
2023/12/05 09:10:37;;;;;;;11.90;3.08;;;;;;;;;;5092307;28;20047;-64
2023/12/05 09:13:41;;;;;;;10.00;3.60;;;;;;;;;;5092667;28;20043;-64
2023/12/05 09:16:46;;;;;;;12.30;4.28;;;;;;;;;;5092080;28;20408;-63
2023/12/05 09:19:50;;;;;;;6.90;3.85;;;;;;;;;;5092555;28;20115;-63
2023/12/05 09:22:55;;;;;;;11.40;3.95;;;;;;;;;;5091408;28;20651;-64
2023/12/05 09:25:59;;;;;;;11.65;4.50;;;;;;;;;;5092344;28;20043;-63
2023/12/05 09:29:03;;;;;;;11.73;4.15;;;;;;;;;;5092223;28;20050;-64
2023/12/05 09:32:07;;;;;;;9.43;3.95;;;;;;;;;;5092254;28;20043;-64
2023/12/05 09:35:12;;;;;;;10.13;3.28;;;;;;;;;;5092342;28;20039;-64
2023/12/05 09:38:16;;;;;;;10.68;4.85;;;;;;;;;;5091973;28;20051;-64
2023/12/05 09:41:21;;;;;;;9.95;3.30;;;12.60;99.90;;;;;;5091790;28;20035;-64
2023/12/05 09:44:31;;;;;;;7.65;3.85;;;13.30;99.90;;;;;;5091960;28;20047;-64
2023/12/05 09:47:35;;;;;;;8.95;3.75;;;13.20;99.90;;;;;;5091988;28;20047;-63
2023/12/05 09:50:40;;;;;;;9.35;3.78;;;;;;;;;;5091913;28;20051;-64
2023/12/05 09:53:45;;;;;;;13.65;4.88;;;11.20;99.90;;;;;;5091991;28;20044;-63
2023/12/05 09:56:49;;;;;;;13.52;4.18;;;;;;;;;;5091698;28;20055;-63
2023/12/05 09:59:54;;;;;;;10.57;3.70;;;;;;;;;;5091843;28;20055;-63
2023/12/05 10:03:04;;;;;;;15.15;4.10;;;13.30;99.90;;;;;;5091510;28;20043;-63
2023/12/05 10:06:09;;;;;;;8.40;3.83;;;13.30;99.90;;;;;;5091721;28;20398;-64
2023/12/05 10:09:14;;;;;;;13.07;4.40;;;13.30;99.90;;;;;;5091543;28;20396;-63
2023/12/05 10:12:19;;;;;;;10.70;4.38;;;;;;;;;;5091461;28;20047;-64
2023/12/05 10:15:24;;;;;;;10.88;4.70;;;13.20;99.90;;;;;;5091585;28;20403;-63
2023/12/05 10:18:30;;;;;;;13.80;4.70;;;13.00;99.90;;;;;;5091037;28;20051;-63
2023/12/05 10:21:34;;;;;;;12.43;4.53;;;;;;;;;;5091313;28;20047;-63
2023/12/05 10:24:43;;;;;;;15.38;4.70;;;13.40;99.90;;;;;;5091375;28;20051;-63
2023/12/05 10:28:03;;;;;;;12.43;5.30;;;14.60;99.90;;;;;;5091099;28;20051;-63
2023/12/05 10:31:14;;;;;;;13.35;5.65;;;13.50;99.90;;;;;;5091408;28;20499;-64
2023/12/05 10:34:18;;;;;;;10.43;5.00;;;;;;;;;;5091035;28;20506;-63
2023/12/05 10:37:24;;;;;;;13.02;5.57;;;13.10;99.90;;;;;;5091279;28;20063;-63
2023/12/05 10:40:29;;;;;;;14.18;5.70;;;;;;;;;;5090900;28;20051;-63
2023/12/05 10:43:33;;;;;;;11.73;5.20;;;;;;;;;;5091201;28;20043;-64
2023/12/05 10:46:37;;;;;;;14.13;4.28;;;;;;;;;;5091129;28;20047;-64
2023/12/05 10:49:42;;;;;;;3.72;1.40;;;;;;;;;;5091172;28;20047;-63
2023/12/05 10:52:46;;;;;;;5.47;1.42;;;12.90;99.90;;;;;;5078465;28;20476;-64
2023/12/05 10:55:51;;;;;;;2.05;1.00;;;;;;;;;;5090976;28;20039;-63
2023/12/05 10:58:58;;;;;;;3.10;0.90;;;12.20;99.90;;;;;;5090706;28;20388;-63
2023/12/05 11:02:11;;;;;;;3.72;1.30;;;12.50;99.90;;;;;;5090935;28;20043;-63
2023/12/05 11:05:16;;;;;;;4.38;2.30;;;;;;;;;;5090747;28;20044;-63
2023/12/05 11:08:20;;;;;;;7.22;2.80;;;;;;;;;;5090616;28;20036;-64
2023/12/05 11:11:26;;;;;;;6.95;2.40;;;13.30;99.90;;;;;;5090461;28;20044;-64
2023/12/05 11:14:33;;;;;;;8.10;2.28;;;13.30;99.90;;;;;;5089353;28;20039;-64
2023/12/05 11:17:40;;;;;;;7.95;1.70;;;13.70;99.90;;;;;;5088258;28;20433;-64
2023/12/05 11:21:03;;;;;;;13.43;2.10;;;14.60;99.90;;;;;;5089036;28;20491;-66
2023/12/05 11:24:20;;;;;;;12.07;2.47;;;14.00;99.90;;;;;;5088445;28;20403;-66
2023/12/05 11:27:44;;;;;;;14.80;2.85;;;12.40;99.90;;;;;;5088430;28;20035;-66
2023/12/05 11:31:27;;;;;;;13.23;2.78;;;14.10;99.90;;;;;;5089447;28;20044;-64
2023/12/05 11:35:09;;;;;;;16.65;2.47;;;14.20;99.90;;;;;;5090709;28;20035;-64
2023/12/05 11:38:19;;;;;;;17.20;2.25;;;13.90;99.90;;;;;;5090279;28;20059;-64
2023/12/05 11:41:23;;;;;;;12.98;2.25;;;;;;;;;;5090758;28;20510;-63
2023/12/05 11:44:34;;;;;;;14.35;2.70;;;;;;;;;;5090332;28;20043;-63
2023/12/05 11:47:38;;;;;;;16.58;2.80;;;;;;;;;;5094127;28;20388;-63
2023/12/05 11:50:50;;;;;;;9.38;2.38;;;;;;;;;;5094507;28;20051;-63
2023/12/05 11:53:54;;;;;;;;;;;15.10;99.90;;;;;;5094714;28;20040;-63
2023/12/05 11:57:15;;;;;;;14.18;2.83;;;14.20;99.90;;;;;;5094147;28;19908;-64
2023/12/05 12:00:20;;;;;;;13.82;3.95;;;16.10;99.90;;;;;;5093824;28;20403;-65
2023/12/05 12:03:27;;;;;;;11.32;3.15;;;14.50;99.90;;;;;;5093957;28;20158;-66
2023/12/05 12:06:32;;;;;;;10.95;2.20;;;;;;;;;;5093681;28;20047;-67
2023/12/05 12:09:38;;;;;;;11.45;2.00;;;;;;;;;;5092274;28;20059;-66
2023/12/05 12:12:44;;;;;;;14.10;2.20;;;;;;;;;;5093396;28;20391;-64
2023/12/05 12:15:48;;;;;;;13.52;4.78;;;;;;;;;;5093602;28;20043;-63
2023/12/05 12:18:53;;;;;;;15.40;5.28;;;;;;;;;;5091769;28;20047;-63
2023/12/05 12:21:57;;;;;;;18.48;6.43;;;;;;;;;;5091994;28;20043;-63
2023/12/05 12:25:11;;;;;;;12.98;5.25;;;17.50;99.90;;;;;;5092291;28;20047;-63
2023/12/05 12:28:32;;;;;;;14.98;5.30;;;14.10;99.90;;;;;;5080066;28;20047;-64
2023/12/05 12:31:37;;;;;;;8.50;3.42;;;;;;;;;;5093064;28;20505;-63
2023/12/05 12:34:45;;;;;;;11.07;4.00;;;13.80;99.90;;;;;;5093343;28;20405;-62
2023/12/05 12:37:53;;;;;;;7.65;4.05;;;13.80;99.90;;;;;;5093325;28;20510;-63
2023/12/05 12:40:57;;;;;;;7.97;3.60;;;;;;;;;;5093420;28;20043;-63
2023/12/05 12:44:05;;;;;;;17.45;4.68;;;13.70;99.90;;;;;;5093185;28;20036;-63
2023/12/05 12:47:09;;;;;;;14.43;5.47;;;;;;;;;;5093120;28;20043;-63
2023/12/05 12:50:14;;;;;;;18.25;5.25;;;;;;;;;;5093416;28;20055;-63
2023/12/05 12:53:19;;;;;;;15.48;3.78;;;;;;;;;;5080835;28;20047;-63
2023/12/05 12:56:24;;;;;;;14.60;3.83;;;;;;;;;;5079246;28;20051;-62
2023/12/05 12:59:28;;;;;;;13.80;3.05;;;;;;;;;;5092807;28;20051;-62
2023/12/05 13:02:32;;;;;;;5.45;2.20;;;;;;;;;;5080703;28;20047;-63
2023/12/05 13:05:40;;;;;;;13.15;2.70;;;14.50;99.90;;;;;;5092808;28;20383;-62
2023/12/05 13:08:45;;;;;;;11.48;2.92;;;;;;;;;;5092608;28;20399;-63
2023/12/05 13:11:49;;;;;;;9.63;2.78;;;;;;;;;;5092746;28;20043;-62
2023/12/05 13:14:53;;;;;;;9.38;2.80;;;;;;;;;;5092454;28;20401;-64
2023/12/05 13:17:58;;;;;;;11.35;3.47;;;;;;;;;;5092206;28;20503;-65
2023/12/05 13:21:02;;;;;;;9.30;3.40;;;;;;;;;;5092697;28;20043;-64
2023/12/05 13:24:07;;;;;;;15.77;4.10;;;;;;;;;;5092207;28;20032;-64
2023/12/05 13:27:12;;;;;;;8.07;3.25;;;13.70;99.90;;;;;;5092146;28;20043;-64
2023/12/05 13:30:17;;;;;;;9.48;4.68;;;;;;;;;;5092161;28;20047;-65
2023/12/05 13:33:21;;;;;;;10.18;4.88;;;;;;;;;;5092113;28;20479;-64
2023/12/05 13:36:25;;;;;;;8.50;5.30;;;;;;;;;;5092252;28;20043;-65
2023/12/05 13:39:30;;;;;;;12.32;7.40;;;;;;;;;;5092031;28;20048;-63
2023/12/05 13:42:35;;;;;;;10.75;4.68;;;13.20;99.90;;;;;;5091872;28;20035;-63
2023/12/05 13:45:40;;;;;;;12.32;5.93;;;;;;;;;;5092131;28;20051;-66
2023/12/05 13:48:44;;;;;;;7.75;4.63;;;13.00;99.90;;;;;;5091935;28;20054;-67
2023/12/05 13:51:48;;;;;;;10.70;5.80;;;;;;;;;;5079408;28;20067;-66
2023/12/05 13:54:52;;;;;;;10.05;6.10;;;;;;;;;;5092347;28;20047;-64
2023/12/05 13:57:57;;;;;;;8.88;4.78;;;;;;;;;;5091371;28;20051;-64
2023/12/05 14:01:01;;;;;;;7.13;3.83;;;;;;;;;;5092126;28;20036;-64
2023/12/05 14:04:06;;;;;;;7.70;4.60;;;;;;;;;;5091839;28;20361;-68
2023/12/05 14:07:10;;;;;;;10.75;4.93;;;;;;;;;;5091414;28;20039;-66
2023/12/05 14:10:15;;;;;;;10.18;4.72;;;;;;;;;;5091626;28;20042;-65
2023/12/05 14:13:20;;;;;;;11.23;5.22;;;;;;;;;;5091925;28;20047;-66
2023/12/05 14:16:27;;;;;;;9.80;4.97;;;;;;;;;;5091750;28;20106;-67
2023/12/05 14:19:32;;;;;;;7.20;4.93;;;;;;;;;;5091293;28;20044;-65
2023/12/05 14:22:36;;;;;;;7.95;4.90;;;;;;;;;;5091683;28;20472;-65
2023/12/05 14:25:41;;;;;;;9.60;5.40;;;;;;;;;;5091111;28;20428;-65
2023/12/05 14:28:45;;;;;;;14.38;6.88;;;;;;;;;;5091355;28;20032;-65
2023/12/05 14:31:50;;;;;;;16.80;7.30;;;;;;;;;;5091079;28;20039;-66
2023/12/05 14:34:54;;;;;;;10.93;7.13;;;;;;;;;;5091451;28;20051;-67
2023/12/05 14:37:59;;;;;;;11.95;7.85;;;12.30;99.90;;;;;;5090856;28;20522;-65
2023/12/05 14:41:03;;;;;;;11.40;7.93;;;;;;;;;;5090555;28;20106;-64
2023/12/05 14:44:08;;;;;;;15.63;9.32;;;12.70;99.90;;;;;;5090150;28;20043;-64
2023/12/05 14:47:12;;;;;;;12.00;6.93;;;;;;;;;;5090796;28;20191;-63
2023/12/05 14:50:17;;;;;;;13.40;7.60;;;;;;;;;;5090909;28;20119;-65
2023/12/05 14:53:21;;;;;;;14.95;9.20;;;;;;;;;;5091176;28;20055;-64
2023/12/05 14:56:25;;;;;;;13.80;9.02;;;;;;;;;;5090800;28;20047;-64
2023/12/05 14:59:30;;;;;;;16.00;11.27;;;;;;;;;;5090607;28;20055;-65
2023/12/05 15:02:37;;;;;;;23.02;12.40;;;12.30;99.90;;;;;;5090701;28;20051;-65
2023/12/05 15:05:42;;;;;;;16.25;9.75;;;;;;;;;;5090598;28;20138;-63
2023/12/05 15:08:47;;;;;;;14.45;8.93;;;;;;;;;;5091029;28;20043;-64
2023/12/05 15:11:51;;;;;;;13.60;9.90;;;;;;;;;;5090822;28;20047;-64
2023/12/05 15:14:56;;;;;;;18.98;12.38;;;;;;;;;;5078094;28;20040;-64
2023/12/05 15:18:00;;;;;;;19.95;12.40;;;;;;;;;;5090314;28;20047;-64
2023/12/05 15:21:04;;;;;;;19.20;12.32;;;;;;;;;;5093325;28;20411;-65
2023/12/05 15:24:08;;;;;;;18.08;11.82;;;;;;;;;;5094793;28;20047;-66
2023/12/05 15:27:13;;;;;;;20.05;11.55;;;;;;;;;;5094433;28;20058;-65
2023/12/05 15:30:17;;;;;;;28.55;19.52;;;;;;;;;;5094519;28;20043;-65
2023/12/05 15:33:21;;;;;;;21.08;13.07;;;;;;;;;;5094458;28;20499;-63
2023/12/05 15:36:26;;;;;;;19.00;11.63;;;;;;;;;;5094013;28;20051;-64
2023/12/05 15:39:30;;;;;;;13.60;10.82;;;;;;;;;;5094270;28;20063;-64
2023/12/05 15:42:35;;;;;;;21.80;11.73;;;;;;;;;;5094559;28;20059;-64
2023/12/05 15:45:39;;;;;;;14.38;9.63;;;;;;;;;;5094210;28;20395;-67
2023/12/05 15:48:43;;;;;;;18.30;12.80;;;;;;;;;;5094092;28;20055;-64
2023/12/05 15:51:48;;;;;;;21.98;11.85;;;;;;;;;;5094083;28;20043;-64
2023/12/05 15:54:52;;;;;;;16.02;10.80;;;;;;;;;;5093959;28;20043;-65
2023/12/05 15:57:57;;;;;;;22.00;13.88;;;;;;;;;;5093967;28;20052;-63
2023/12/05 16:01:01;;;;;;;23.15;15.10;;;;;;;;;;5093743;28;20074;-64
2023/12/05 16:04:06;;;;;;;23.63;15.90;;;;;;;;;;5093628;28;20039;-64
2023/12/05 16:07:10;;;;;;;26.55;17.77;;;;;;;;;;5094046;28;20415;-64
2023/12/05 16:10:15;;;;;;;25.30;17.35;;;;;;;;;;5093509;28;20391;-65
2023/12/05 16:13:19;;;;;;;25.75;18.30;;;;;;;;;;5093871;28;20055;-64
2023/12/05 16:16:23;;;;;;;31.13;21.90;;;;;;;;;;5093320;28;20499;-66
2023/12/05 16:19:28;;;;;;;28.90;18.23;;;;;;;;;;5093424;28;20411;-65
2023/12/05 16:22:32;;;;;;;27.00;16.15;;;;;;;;;;5093728;28;20047;-66
2023/12/05 16:25:37;;;;;;;30.00;18.20;;;;;;;;;;5093149;28;20043;-64
2023/12/05 16:28:45;;;;;;;25.08;17.30;;;;;;;;;;5093530;28;20047;-63
2023/12/05 16:31:49;;;;;;;35.10;23.77;;;;;;;;;;5093347;28;20051;-64
2023/12/05 16:34:54;;;;;;;34.35;25.25;;;;;;;;;;5093548;28;20066;-64
2023/12/05 16:37:58;;;;;;;32.03;23.55;;;;;;;;;;5080664;28;20051;-66
2023/12/05 16:41:03;;;;;;;26.38;19.08;;;;;;;;;;5093849;28;20051;-66
2023/12/05 16:44:07;;;;;;;34.67;19.95;;;;;;;;;;5093958;28;20051;-65
2023/12/05 16:47:12;;;;;;;23.85;17.15;;;;;;;;;;5093018;28;20051;-67
2023/12/05 16:50:16;;;;;;;31.05;19.23;;;;;;;;;;5093099;28;20039;-65
2023/12/05 16:53:20;;;;;;;25.95;17.25;;;;;;;;;;5092860;28;20047;-65
2023/12/05 16:56:24;;;;;;;20.95;14.20;;;;;;;;;;5093003;28;20078;-63
2023/12/05 16:59:29;;;;;;;18.15;13.25;;;;;;;;;;5092680;28;20055;-64
2023/12/05 17:02:33;;;;;;;31.42;16.70;;;;;;;;;;5080299;28;20039;-64
2023/12/05 17:05:38;;;;;;;23.15;15.77;;;;;;;;;;5092499;28;20059;-64
2023/12/05 17:08:42;;;;;;;27.85;20.45;;;;;;;;;;5092561;28;20066;-63
2023/12/05 17:11:46;;;;;;;20.65;13.85;;;;;;;;;;5079832;28;20067;-64
2023/12/05 17:14:53;;;;;;;29.60;18.23;;;;;;;;;;5092408;28;20055;-63
2023/12/05 17:17:57;;;;;;;21.65;14.65;;;;;;;;;;5092374;28;20047;-63
2023/12/05 17:21:02;;;;;;;23.75;13.65;;;;;;;;;;5092219;28;20542;-63
2023/12/05 17:24:07;;;;;;;22.33;14.07;;;;;;;;;;5092384;28;20047;-64
2023/12/05 17:27:12;;;;;;;22.98;16.50;;;;;;;;;;5091841;28;20042;-64
2023/12/05 17:30:17;;;;;;;20.60;14.93;;;;;;;;;;5092207;28;20315;-64
2023/12/05 17:33:21;;;;;;;23.83;13.68;;;;;;;;;;5091826;28;20046;-66
2023/12/05 17:36:26;;;;;;;45.65;31.23;;;;;;;;;;5092005;28;20118;-66
2023/12/05 17:39:30;;;;;;;26.13;17.30;;;;;;;;;;5091780;28;20059;-65
2023/12/05 17:42:34;;;;;;;41.88;29.58;;;;;;;;;;5091261;28;20043;-65
2023/12/05 17:45:39;;;;;;;14.60;11.35;;;;;;;;;;5091828;28;20373;-66
2023/12/05 17:48:44;;;;;;;28.58;21.13;;;;;;;;;;5091744;28;20051;-65